Time,TemperatureF,DewpointF,PressureIn,WindDirection,WindDirectionDegrees,WindSpeedMPH,WindSpeedGustMPH,Humidity,HourlyPrecipIn,Conditions,Clouds,dailyrainin,SoftwareType,DateUTC
2013-06-17 00:00:00,66.2,60.2,29.71,WSW,248,0.0,2.0,81,0.00,,CLR,0.00,VWS V14.01,2013-06-17 04:00:00,
2013-06-17 00:15:00,65.9,60.3,29.72,ESE,115,0.0,1.0,82,0.00,,CLR,0.00,VWS V14.01,2013-06-17 04:15:00,
2013-06-17 00:30:00,65.3,60.0,29.72,SE,146,1.0,1.0,83,0.00,,CLR,0.00,VWS V14.01,2013-06-17 04:30:00,
2013-06-17 00:45:00,64.5,59.9,29.73,SE,138,0.0,0.0,85,0.00,,CLR,0.00,VWS V14.01,2013-06-17 04:45:00,
2013-06-17 01:00:00,63.6,59.3,29.73,SE,139,0.0,0.0,86,0.00,,CLR,0.00,VWS V14.01,2013-06-17 05:00:00,
2013-06-17 01:15:00,62.7,59.1,29.73,SE,137,0.0,0.0,88,0.00,,CLR,0.00,VWS V14.01,2013-06-17 05:15:00,
2013-06-17 01:30:00,62.3,59.0,29.73,NNE,30,0.0,0.0,89,0.00,,CLR,0.00,VWS V14.01,2013-06-17 05:30:00,
2013-06-17 01:45:00,62.1,58.8,29.73,NNE,30,0.0,0.0,89,0.00,,CLR,0.00,VWS V14.01,2013-06-17 05:45:00,
2013-06-17 02:00:00,61.4,58.5,29.74,NNE,30,0.0,0.0,90,0.00,,CLR,0.00,VWS V14.01,2013-06-17 06:00:00,
2013-06-17 02:15:00,60.7,58.4,29.74,West,276,2.0,3.0,92,0.00,,CLR,0.00,VWS V14.01,2013-06-17 06:15:00,
2013-06-17 02:30:00,60.8,58.2,29.74,WNW,285,0.0,0.0,91,0.00,,CLR,0.00,VWS V14.01,2013-06-17 06:30:00,
2013-06-17 02:45:00,60.5,58.2,29.74,NW,313,0.0,0.0,92,0.00,,CLR,0.00,VWS V14.01,2013-06-17 06:45:00,
2013-06-17 03:00:00,60.0,57.7,29.74,NW,322,0.0,0.0,92,0.00,,CLR,0.00,VWS V14.01,2013-06-17 07:00:00,
2013-06-17 03:15:00,59.2,57.5,29.74,NW,321,0.0,0.0,94,0.00,,CLR,0.00,VWS V14.01,2013-06-17 07:15:00,
2013-06-17 03:30:00,58.4,57.0,29.74,NW,321,0.0,0.0,95,0.00,,CLR,0.00,VWS V14.01,2013-06-17 07:30:00,
2013-06-17 03:45:00,57.9,56.8,29.74,NW,321,0.0,0.0,96,0.00,,CLR,0.00,VWS V14.01,2013-06-17 07:45:00,
2013-06-17 04:00:00,57.7,56.9,29.75,NW,322,0.0,0.0,97,0.00,,CLR,0.00,VWS V14.01,2013-06-17 08:00:00,
2013-06-17 04:15:00,57.6,56.8,29.76,NW,321,0.0,0.0,97,0.00,,CLR,0.00,VWS V14.01,2013-06-17 08:15:00,
2013-06-17 04:30:00,57.4,56.6,29.76,NW,322,0.0,0.0,97,0.00,,CLR,0.00,VWS V14.01,2013-06-17 08:30:00,
2013-06-17 04:45:00,57.5,56.9,29.75,NW,321,0.0,0.0,98,0.00,,CLR,0.00,VWS V15.00,2013-06-17 08:45:00,
2013-06-17 05:00:00,57.7,56.9,29.76,NW,321,0.0,0.0,97,0.00,,CLR,0.00,VWS V14.01,2013-06-17 09:00:00,
2013-06-17 05:15:00,57.8,57.0,29.76,NW,321,0.0,0.0,97,0.00,,CLR,0.00,VWS V14.01,2013-06-17 09:15:00,
2013-06-17 05:30:00,57.8,57.0,29.76,NW,321,0.0,0.0,97,0.00,,CLR,0.00,VWS V14.01,2013-06-17 09:30:00,
2013-06-17 05:45:00,58.5,57.7,29.76,South,179,0.0,1.0,97,0.00,,CLR,0.00,VWS V14.01,2013-06-17 09:45:00,
2013-06-17 06:00:00,59.8,58.7,29.77,WSW,239,1.0,1.0,96,0.00,,CLR,0.00,VWS V14.01,2013-06-17 10:00:00,
2013-06-17 06:15:00,61.6,59.6,29.77,WSW,246,0.0,2.0,93,0.00,,CLR,0.00,VWS V14.01,2013-06-17 10:15:00,
2013-06-17 06:30:00,64.3,60.7,29.76,ESE,114,0.0,0.0,88,0.00,,CLR,0.00,VWS V14.01,2013-06-17 10:30:00,
2013-06-17 06:45:00,65.7,61.1,29.77,North,4,0.0,2.0,85,0.00,,CLR,0.00,VWS V14.01,2013-06-17 10:45:00,
2013-06-17 07:00:00,67.3,62.0,29.78,NNE,33,0.0,1.0,83,0.00,,CLR,0.00,VWS V14.01,2013-06-17 11:00:00,
2013-06-17 07:15:00,68.2,62.5,29.78,East,96,1.0,2.0,82,0.00,,CLR,0.00,VWS V14.01,2013-06-17 11:15:00,
2013-06-17 07:30:00,69.9,63.8,29.78,South,186,0.0,1.0,81,0.00,,CLR,0.00,VWS V14.01,2013-06-17 11:30:00,
2013-06-17 07:45:00,71.2,64.4,29.78,ESE,105,1.0,2.0,79,0.00,,CLR,0.00,VWS V14.01,2013-06-17 11:45:00,
2013-06-17 08:00:00,72.0,64.8,29.79,ENE,77,1.0,2.0,78,0.00,,CLR,0.00,VWS V14.01,2013-06-17 12:00:00,
2013-06-17 08:01:00,75.7,66.0,29.78,ESE,114,0.0,1.0,72,0.00,,CLR,0.00,VWS V14.01,2013-06-17 12:01:00,
2013-06-17 08:02:00,75.7,66.0,29.78,ESE,114,0.0,1.0,72,0.00,,CLR,0.00,VWS V14.01,2013-06-17 12:02:00,
2013-06-17 08:03:00,75.7,66.0,29.78,ESE,114,0.0,0.0,72,0.00,,CLR,0.00,VWS V14.01,2013-06-17 12:03:00,
2013-06-17 08:04:00,75.7,66.0,29.78,ESE,114,0.0,0.0,72,0.00,,CLR,0.00,VWS V14.01,2013-06-17 12:04:00,
2013-06-17 08:05:00,75.7,66.0,29.78,ESE,114,0.0,0.0,72,0.00,,CLR,0.00,VWS V14.01,2013-06-17 12:05:00,
2013-06-17 08:06:00,75.7,66.0,29.78,ESE,114,0.0,0.0,72,0.00,,CLR,0.00,VWS V14.01,2013-06-17 12:06:00,
2013-06-17 08:07:00,75.7,66.0,29.78,ESE,114,0.0,0.0,72,0.00,,CLR,0.00,VWS V14.01,2013-06-17 12:07:00,
2013-06-17 08:15:00,73.0,65.4,29.79,SE,142,2.0,2.0,77,0.00,,CLR,0.00,VWS V14.01,2013-06-17 12:15:00,
2013-06-17 08:17:00,75.7,66.0,29.78,ESE,114,0.0,0.0,72,0.00,,CLR,0.00,VWS V14.01,2013-06-17 12:17:00,
2013-06-17 08:18:00,75.7,66.0,29.78,ESE,114,0.0,0.0,72,0.00,,CLR,0.00,VWS V14.01,2013-06-17 12:18:00,
2013-06-17 08:19:00,76.8,67.1,29.78,SSE,166,1.0,1.0,72,0.00,,CLR,0.00,VWS V14.01,2013-06-17 12:19:00,
2013-06-17 08:20:00,76.8,65.9,29.78,SE,141,1.0,3.0,69,0.00,,CLR,0.00,VWS V14.01,2013-06-17 12:20:00,
2013-06-17 08:21:00,76.9,65.1,29.78,NE,55,2.0,3.0,67,0.00,,CLR,0.00,VWS V14.01,2013-06-17 12:21:00,
2013-06-17 08:30:00,74.0,65.2,29.78,East,94,0.0,4.0,74,0.00,,CLR,0.00,VWS V14.01,2013-06-17 12:30:00,
2013-06-17 08:33:00,76.9,64.2,29.78,SW,226,0.0,5.0,65,0.00,,CLR,0.00,VWS V14.01,2013-06-17 12:33:00,
2013-06-17 08:34:00,77.0,64.3,29.78,SW,228,2.0,5.0,65,0.00,,CLR,0.00,VWS V14.01,2013-06-17 12:34:00,
2013-06-17 08:35:00,77.0,63.9,29.78,SE,129,2.0,5.0,64,0.00,,CLR,0.00,VWS V14.01,2013-06-17 12:35:00,
2013-06-17 08:36:00,77.1,64.9,29.77,WNW,283,3.0,5.0,66,0.00,,CLR,0.00,VWS V14.01,2013-06-17 12:36:00,
2013-06-17 08:37:00,77.1,64.9,29.77,West,276,4.0,4.0,66,0.00,,CLR,0.00,VWS V14.01,2013-06-17 12:37:00,
2013-06-17 08:45:00,75.0,65.4,29.78,WSW,257,1.0,3.0,72,0.00,,CLR,0.00,VWS V14.01,2013-06-17 12:45:00,
2013-06-17 08:51:00,77.9,64.3,29.77,SSE,150,0.0,4.0,63,0.00,,CLR,0.00,VWS V14.01,2013-06-17 12:51:00,
2013-06-17 08:52:00,78.0,63.9,29.77,SW,217,1.0,4.0,62,0.00,,CLR,0.00,VWS V14.01,2013-06-17 12:52:00,
2013-06-17 08:53:00,78.2,65.5,29.77,WNW,282,1.0,2.0,65,0.00,,CLR,0.00,VWS V14.01,2013-06-17 12:53:00,
2013-06-17 08:54:00,78.3,63.8,29.77,SW,226,3.0,3.0,61,0.00,,CLR,0.00,VWS V14.01,2013-06-17 12:54:00,
2013-06-17 08:55:00,78.3,64.7,29.77,ESE,120,0.0,3.0,63,0.00,,CLR,0.00,VWS V14.01,2013-06-17 12:55:00,
2013-06-17 08:56:00,78.3,65.1,29.77,WSW,238,3.0,3.0,64,0.00,,CLR,0.00,VWS V14.01,2013-06-17 12:56:00,
2013-06-17 09:00:00,-999.0,-99.9,0.00,North,-999,-999.0,-999.0,-999,0.00,,,0.00,weatherlink.com 1.10,2013-06-17 13:00:00,
2013-06-17 09:01:00,79.1,64.5,29.77,WNW,283,0.0,3.0,61,0.00,,CLR,0.00,VWS V14.01,2013-06-17 13:01:00,
2013-06-17 09:02:00,79.1,64.5,29.77,WNW,283,0.0,3.0,61,0.00,,CLR,0.00,VWS V14.01,2013-06-17 13:02:00,
2013-06-17 09:03:00,79.1,64.5,29.77,WNW,283,0.0,2.0,61,0.00,,CLR,0.00,VWS V14.01,2013-06-17 13:03:00,
2013-06-17 09:04:00,79.1,64.5,29.77,WNW,283,0.0,0.0,61,0.00,,CLR,0.00,VWS V14.01,2013-06-17 13:04:00,
2013-06-17 09:05:00,75.7,66.0,29.78,ESE,114,0.0,0.0,72,0.00,,CLR,0.00,VWS V14.01,2013-06-17 13:05:00,
2013-06-17 09:06:00,79.1,64.5,29.77,WNW,283,0.0,0.0,61,0.00,,CLR,0.00,VWS V14.01,2013-06-17 13:06:00,
2013-06-17 09:07:00,78.6,63.1,29.77,WSW,242,1.0,2.0,59,0.00,,CLR,0.00,VWS V14.01,2013-06-17 13:07:00,
2013-06-17 09:08:00,78.6,63.1,29.77,WSW,241,0.0,2.0,59,0.00,,CLR,0.00,VWS V14.01,2013-06-17 13:08:00,
2013-06-17 09:09:00,78.6,63.6,29.77,SSW,211,0.0,3.0,60,0.00,,CLR,0.00,VWS V14.01,2013-06-17 13:09:00,
2013-06-17 09:10:00,75.7,66.0,29.78,ESE,114,0.0,0.0,72,0.00,,CLR,0.00,VWS V14.01,2013-06-17 13:10:00,
2013-06-17 09:11:00,79.1,64.5,29.77,WNW,283,0.0,0.0,61,0.00,,CLR,0.00,VWS V14.01,2013-06-17 13:11:00,
2013-06-17 09:12:00,79.1,64.5,29.77,WNW,283,0.0,0.0,61,0.00,,CLR,0.00,VWS V14.01,2013-06-17 13:12:00,
2013-06-17 09:13:00,79.1,64.5,29.77,WNW,283,0.0,0.0,61,0.00,,CLR,0.00,VWS V14.01,2013-06-17 13:13:00,
2013-06-17 09:14:00,79.1,64.5,29.77,WNW,283,0.0,0.0,61,0.00,,CLR,0.00,VWS V14.01,2013-06-17 13:14:00,
2013-06-17 09:15:00,75.7,66.0,29.78,ESE,114,0.0,0.0,72,0.00,,CLR,0.00,VWS V14.01,2013-06-17 13:15:00,
2013-06-17 09:16:00,79.1,64.5,29.77,WNW,283,0.0,0.0,61,0.00,,CLR,0.00,VWS V14.01,2013-06-17 13:16:00,
2013-06-17 09:17:00,79.1,64.5,29.77,WNW,283,0.0,0.0,61,0.00,,CLR,0.00,VWS V14.01,2013-06-17 13:17:00,
2013-06-17 09:18:00,81.1,63.9,29.77,SW,214,2.0,3.0,56,0.00,,CLR,0.00,VWS V14.01,2013-06-17 13:18:00,
2013-06-17 09:19:00,81.2,65.0,29.77,SE,146,0.0,3.0,58,0.00,,CLR,0.00,VWS V14.01,2013-06-17 13:19:00,
2013-06-17 09:20:00,77.0,65.2,29.78,West,260,1.0,3.0,67,0.00,,CLR,0.00,VWS V14.01,2013-06-17 13:20:00,
2013-06-17 09:21:00,81.2,62.5,29.77,NE,48,1.0,4.0,53,0.00,,CLR,0.00,VWS V14.01,2013-06-17 13:21:00,
2013-06-17 09:22:00,81.1,63.9,29.77,WSW,251,5.0,5.0,56,0.00,,CLR,0.00,VWS V14.01,2013-06-17 13:22:00,
2013-06-17 09:23:00,81.0,63.8,29.77,WNW,290,0.0,5.0,56,0.00,,CLR,0.00,VWS V14.01,2013-06-17 13:23:00,
2013-06-17 09:24:00,81.0,64.3,29.77,SE,128,1.0,5.0,57,0.00,,CLR,0.00,VWS V14.01,2013-06-17 13:24:00,
2013-06-17 09:25:00,77.1,64.0,29.77,WNW,283,1.0,5.0,64,0.00,,CLR,0.00,VWS V14.01,2013-06-17 13:25:00,
2013-06-17 09:26:00,81.1,63.9,29.77,SE,143,2.0,5.0,56,0.00,,CLR,0.00,VWS V14.01,2013-06-17 13:26:00,
2013-06-17 09:27:00,81.2,64.5,29.77,NE,36,0.0,5.0,57,0.00,,CLR,0.00,VWS V14.01,2013-06-17 13:27:00,
2013-06-17 09:28:00,81.2,65.5,29.77,NW,307,2.0,5.0,59,0.00,,CLR,0.00,VWS V14.01,2013-06-17 13:28:00,
2013-06-17 09:29:00,81.3,64.6,29.77,SE,127,2.0,2.0,57,0.00,,CLR,0.00,VWS V14.01,2013-06-17 13:29:00,
2013-06-17 09:30:00,76.9,64.2,29.78,SW,226,0.0,5.0,65,0.00,,CLR,0.00,VWS V14.01,2013-06-17 13:30:00,
2013-06-17 09:31:00,81.3,64.6,29.77,SW,226,2.0,3.0,57,0.00,,CLR,0.00,VWS V14.01,2013-06-17 13:31:00,
2013-06-17 09:32:00,81.3,64.1,29.76,WSW,246,1.0,3.0,56,0.00,,CLR,0.00,VWS V14.01,2013-06-17 13:32:00,
2013-06-17 09:33:00,81.4,65.7,29.76,SE,136,0.0,3.0,59,0.00,,CLR,0.00,VWS V14.01,2013-06-17 13:33:00,
2013-06-17 09:34:00,81.4,64.7,29.76,WSW,239,1.0,2.0,57,0.00,,CLR,0.00,VWS V14.01,2013-06-17 13:34:00,
2013-06-17 09:35:00,77.1,64.4,29.77,WNW,300,1.0,4.0,65,0.00,,CLR,0.00,VWS V14.01,2013-06-17 13:35:00,
2013-06-17 09:36:00,81.6,64.9,29.77,West,259,2.0,2.0,57,0.00,,CLR,0.00,VWS V14.01,2013-06-17 13:36:00,
2013-06-17 09:37:00,81.6,65.4,29.76,West,277,1.0,2.0,58,0.00,,CLR,0.00,VWS V14.01,2013-06-17 13:37:00,
2013-06-17 09:38:00,81.6,64.9,29.76,West,277,0.0,2.0,57,0.00,,CLR,0.00,VWS V14.01,2013-06-17 13:38:00,
2013-06-17 09:39:00,81.5,64.8,29.77,East,82,2.0,3.0,57,0.00,,CLR,0.00,VWS V14.01,2013-06-17 13:39:00,
2013-06-17 09:40:00,77.4,65.2,29.77,SW,217,2.0,5.0,66,0.00,,CLR,0.00,VWS V14.01,2013-06-17 13:40:00,
2013-06-17 09:41:00,81.4,65.2,29.77,SW,235,1.0,7.0,58,0.00,,CLR,0.00,VWS V14.01,2013-06-17 13:41:00,
2013-06-17 09:42:00,81.4,63.7,29.77,ESE,113,2.0,7.0,55,0.00,,CLR,0.00,VWS V14.01,2013-06-17 13:42:00,
2013-06-17 09:43:00,81.4,64.2,29.77,WSW,249,2.0,4.0,56,0.00,,CLR,0.00,VWS V14.01,2013-06-17 13:43:00,
2013-06-17 09:44:00,81.5,64.3,29.77,WSW,246,1.0,3.0,56,0.00,,CLR,0.00,VWS V14.01,2013-06-17 13:44:00,
2013-06-17 09:45:00,77.7,64.1,29.77,SSW,205,2.0,3.0,63,0.00,,CLR,0.00,VWS V14.01,2013-06-17 13:45:00,
2013-06-17 09:46:00,81.4,63.7,29.76,West,264,3.0,3.0,55,0.00,,CLR,0.00,VWS V14.01,2013-06-17 13:46:00,
2013-06-17 09:47:00,81.3,63.1,29.76,WSW,253,4.0,4.0,54,0.00,,CLR,0.00,VWS V14.01,2013-06-17 13:47:00,
2013-06-17 09:48:00,81.2,65.0,29.76,SW,233,0.0,4.0,58,0.00,,CLR,0.00,VWS V14.01,2013-06-17 13:48:00,
2013-06-17 09:49:00,81.2,64.5,29.76,West,269,3.0,4.0,57,0.00,,CLR,0.00,VWS V14.01,2013-06-17 13:49:00,
2013-06-17 09:50:00,78.2,65.5,29.77,WNW,285,1.0,2.0,65,0.00,,CLR,0.00,VWS V14.01,2013-06-17 13:50:00,
2013-06-17 09:51:00,81.2,64.0,29.76,NNW,345,2.0,3.0,56,0.00,,CLR,0.00,VWS V14.01,2013-06-17 13:51:00,
2013-06-17 09:52:00,81.2,64.5,29.76,South,170,1.0,3.0,57,0.00,,CLR,0.00,VWS V14.01,2013-06-17 13:52:00,
2013-06-17 09:53:00,81.4,64.7,29.76,SE,131,1.0,2.0,57,0.00,,CLR,0.00,VWS V14.01,2013-06-17 13:53:00,
2013-06-17 09:54:00,81.5,65.8,29.76,SW,224,1.0,2.0,59,0.00,,CLR,0.00,VWS V14.01,2013-06-17 13:54:00,
2013-06-17 09:55:00,78.2,63.7,29.77,WSW,238,2.0,5.0,61,0.00,,CLR,0.00,VWS V14.01,2013-06-17 13:55:00,
2013-06-17 09:56:00,81.9,65.2,29.76,NW,309,0.0,2.0,57,0.00,,CLR,0.00,VWS V14.01,2013-06-17 13:56:00,
2013-06-17 09:57:00,81.9,65.2,29.76,South,188,2.0,3.0,57,0.00,,CLR,0.00,VWS V14.01,2013-06-17 13:57:00,
2013-06-17 09:58:00,81.9,63.6,29.76,West,267,4.0,4.0,54,0.00,,CLR,0.00,VWS V14.01,2013-06-17 13:58:00,
2013-06-17 09:59:00,81.9,64.2,29.76,WNW,295,2.0,4.0,55,0.00,,CLR,0.00,VWS V14.01,2013-06-17 13:59:00,
2013-06-17 10:00:00,78.4,63.8,29.77,SW,231,1.0,2.0,61,0.00,,CLR,0.00,VWS V14.01,2013-06-17 14:00:00,
2013-06-17 10:01:00,81.7,65.5,29.76,SSW,198,1.0,4.0,58,0.00,,CLR,0.00,VWS V14.01,2013-06-17 14:01:00,
2013-06-17 10:02:00,81.7,64.0,29.76,SE,141,2.0,3.0,55,0.00,,CLR,0.00,VWS V14.01,2013-06-17 14:02:00,
2013-06-17 10:03:00,81.6,63.9,29.76,South,169,2.0,4.0,55,0.00,,CLR,0.00,VWS V14.01,2013-06-17 14:03:00,
2013-06-17 10:04:00,81.6,64.9,29.76,ESE,103,3.0,4.0,57,0.00,,CLR,0.00,VWS V14.01,2013-06-17 14:04:00,
2013-06-17 10:05:00,78.6,63.6,29.77,SW,232,1.0,3.0,60,0.00,,CLR,0.00,VWS V14.01,2013-06-17 14:05:00,
2013-06-17 10:06:00,81.5,63.3,29.76,West,277,1.0,4.0,54,0.00,,CLR,0.00,VWS V14.01,2013-06-17 14:06:00,
2013-06-17 10:07:00,81.3,62.5,29.76,WSW,250,5.0,5.0,53,0.00,,CLR,0.00,VWS V14.01,2013-06-17 14:07:00,
2013-06-17 10:08:00,81.3,63.1,29.76,West,273,2.0,8.0,54,0.00,,CLR,0.00,VWS V14.01,2013-06-17 14:08:00,
2013-06-17 10:09:00,81.1,61.8,29.76,NW,326,4.0,8.0,52,0.00,,CLR,0.00,VWS V14.01,2013-06-17 14:09:00,
2013-06-17 10:10:00,79.0,64.4,29.77,SW,223,2.0,2.0,61,0.00,,CLR,0.00,VWS V14.01,2013-06-17 14:10:00,
2013-06-17 10:11:00,80.8,62.6,29.76,ESE,106,1.0,8.0,54,0.00,,CLR,0.00,VWS V14.01,2013-06-17 14:11:00,
2013-06-17 10:12:00,80.8,63.1,29.76,ESE,107,0.0,4.0,55,0.00,,CLR,0.00,VWS V14.01,2013-06-17 14:12:00,
2013-06-17 10:13:00,81.0,63.8,29.76,East,101,1.0,3.0,56,0.00,,CLR,0.00,VWS V14.01,2013-06-17 14:13:00,
2013-06-17 10:14:00,81.1,64.4,29.76,NE,36,2.0,3.0,57,0.00,,CLR,0.00,VWS V14.01,2013-06-17 14:14:00,
2013-06-17 10:15:00,81.2,64.5,29.76,SSW,211,4.0,4.0,57,0.00,,CLR,0.00,VWS V14.01,2013-06-17 14:15:00,
2013-06-17 10:16:00,81.3,63.6,29.76,ENE,77,1.0,4.0,55,0.00,,CLR,0.00,VWS V14.01,2013-06-17 14:16:00,
2013-06-17 10:17:00,81.3,64.1,29.76,SW,227,3.0,4.0,56,0.00,,CLR,0.00,VWS V14.01,2013-06-17 14:17:00,
2013-06-17 10:18:00,81.4,62.6,29.76,WNW,288,0.0,4.0,53,0.00,,CLR,0.00,VWS V14.01,2013-06-17 14:18:00,
2013-06-17 10:19:00,81.5,62.7,29.75,West,279,2.0,4.0,53,0.00,,CLR,0.00,VWS V14.01,2013-06-17 14:19:00,
2013-06-17 10:20:00,81.6,62.3,29.75,NNE,17,3.0,5.0,52,0.00,,CLR,0.00,VWS V14.01,2013-06-17 14:20:00,
2013-06-17 10:21:00,81.6,62.3,29.76,East,81,5.0,5.0,52,0.00,,CLR,0.00,VWS V14.01,2013-06-17 14:21:00,
2013-06-17 10:22:00,81.6,62.3,29.76,SSE,163,1.0,5.0,52,0.00,,CLR,0.00,VWS V14.01,2013-06-17 14:22:00,
2013-06-17 10:23:00,81.7,62.4,29.76,SW,220,1.0,5.0,52,0.00,,CLR,0.00,VWS V14.01,2013-06-17 14:23:00,
2013-06-17 10:24:00,81.7,63.5,29.76,SE,129,1.0,5.0,54,0.00,,CLR,0.00,VWS V14.01,2013-06-17 14:24:00,
2013-06-17 10:25:00,81.9,62.6,29.76,East,98,1.0,2.0,52,0.00,,CLR,0.00,VWS V14.01,2013-06-17 14:25:00,
2013-06-17 10:26:00,82.0,62.7,29.76,West,273,1.0,2.0,52,0.00,,CLR,0.00,VWS V14.01,2013-06-17 14:26:00,
2013-06-17 10:27:00,81.9,62.6,29.76,WSW,238,4.0,4.0,52,0.00,,CLR,0.00,VWS V14.01,2013-06-17 14:27:00,
2013-06-17 10:28:00,81.9,62.6,29.76,NW,309,2.0,4.0,52,0.00,,CLR,0.00,VWS V14.01,2013-06-17 14:28:00,
2013-06-17 10:29:00,-999.0,-99.9,0.00,North,-999,-999.0,-999.0,-999,0.00,,,0.00,weatherlink.com 1.10,2013-06-17 14:29:00,
2013-06-17 10:30:00,81.9,63.1,29.76,SE,146,2.0,4.0,53,0.00,,CLR,0.00,VWS V14.01,2013-06-17 14:30:00,
2013-06-17 10:31:00,82.0,64.3,29.76,SSW,195,3.0,4.0,55,0.00,,CLR,0.00,VWS V14.01,2013-06-17 14:31:00,
2013-06-17 10:32:00,82.0,63.2,29.76,WNW,300,1.0,4.0,53,0.00,,CLR,0.00,VWS V14.01,2013-06-17 14:32:00,
2013-06-17 10:33:00,82.0,62.7,29.76,SW,226,2.0,4.0,52,0.00,,CLR,0.00,VWS V14.01,2013-06-17 14:33:00,
2013-06-17 10:34:00,81.9,63.6,29.76,NW,305,1.0,3.0,54,0.00,,CLR,0.00,VWS V14.01,2013-06-17 14:34:00,
2013-06-17 10:35:00,81.9,64.2,29.76,North,1,0.0,3.0,55,0.00,,CLR,0.00,VWS V14.01,2013-06-17 14:35:00,
2013-06-17 10:36:00,81.9,64.2,29.76,SSE,165,4.0,4.0,55,0.00,,CLR,0.00,VWS V14.01,2013-06-17 14:36:00,
2013-06-17 10:37:00,81.9,62.0,29.76,SW,225,2.0,5.0,51,0.00,,CLR,0.00,VWS V14.01,2013-06-17 14:37:00,
2013-06-17 10:38:00,81.8,61.4,29.76,West,279,2.0,5.0,50,0.00,,CLR,0.00,VWS V14.01,2013-06-17 14:38:00,
2013-06-17 10:39:00,81.8,61.9,29.76,WSW,246,1.0,5.0,51,0.00,,CLR,0.00,VWS V14.01,2013-06-17 14:39:00,
2013-06-17 10:40:00,81.8,62.5,29.76,WSW,252,5.0,5.0,52,0.00,,CLR,0.00,VWS V14.01,2013-06-17 14:40:00,
2013-06-17 10:41:00,81.8,61.9,29.76,WSW,255,1.0,5.0,51,0.00,,CLR,0.00,VWS V14.01,2013-06-17 14:41:00,
2013-06-17 10:42:00,81.7,61.8,29.76,WSW,253,2.0,5.0,51,0.00,,CLR,0.00,VWS V14.01,2013-06-17 14:42:00,
2013-06-17 10:43:00,81.6,62.3,29.76,West,279,1.0,5.0,52,0.00,,CLR,0.00,VWS V14.01,2013-06-17 14:43:00,
2013-06-17 10:44:00,81.5,61.7,29.76,West,274,2.0,5.0,51,0.00,,CLR,0.00,VWS V14.01,2013-06-17 14:44:00,
2013-06-17 10:45:00,81.3,62.5,29.76,ESE,112,2.0,5.0,53,0.00,,CLR,0.00,VWS V14.01,2013-06-17 14:45:00,
2013-06-17 10:46:00,81.2,61.9,29.76,SW,229,1.0,5.0,52,0.00,,CLR,0.00,VWS V14.01,2013-06-17 14:46:00,
2013-06-17 10:47:00,81.2,62.5,29.76,SW,222,0.0,4.0,53,0.00,,CLR,0.00,VWS V14.01,2013-06-17 14:47:00,
2013-06-17 10:48:00,81.4,63.2,29.76,SW,218,1.0,2.0,54,0.00,,CLR,0.00,VWS V14.01,2013-06-17 14:48:00,
2013-06-17 10:49:00,81.5,63.3,29.76,SSW,208,4.0,4.0,54,0.00,,CLR,0.00,VWS V14.01,2013-06-17 14:49:00,
2013-06-17 10:50:00,81.4,62.1,29.76,WNW,283,0.0,4.0,52,0.00,,CLR,0.00,VWS V14.01,2013-06-17 14:50:00,
2013-06-17 10:51:00,81.4,62.6,29.76,NNW,338,1.0,4.0,53,0.00,,CLR,0.00,VWS V14.01,2013-06-17 14:51:00,
2013-06-17 10:52:00,81.5,63.3,29.76,East,98,1.0,4.0,54,0.00,,CLR,0.00,VWS V14.01,2013-06-17 14:52:00,
2013-06-17 10:53:00,81.2,64.0,29.77,WNW,285,3.0,5.0,56,0.00,,,0.00,weatherlink.com 1.10,2013-06-17 14:53:00,
2013-06-17 10:54:00,81.7,65.0,29.76,West,267,1.0,2.0,57,0.00,,CLR,0.00,VWS V14.01,2013-06-17 14:54:00,
2013-06-17 10:55:00,81.7,64.5,29.76,West,271,0.0,2.0,56,0.00,,CLR,0.00,VWS V14.01,2013-06-17 14:55:00,
2013-06-17 10:56:00,81.9,63.6,29.76,South,184,0.0,1.0,54,0.00,,CLR,0.00,VWS V14.01,2013-06-17 14:56:00,
2013-06-17 10:57:00,82.0,64.3,29.76,SW,217,0.0,1.0,55,0.00,,CLR,0.00,VWS V14.01,2013-06-17 14:57:00,
2013-06-17 10:58:00,82.1,63.3,29.76,East,79,1.0,1.0,53,0.00,,CLR,0.00,VWS V14.01,2013-06-17 14:58:00,
2013-06-17 10:59:00,82.3,64.5,29.76,West,263,0.0,2.0,55,0.00,,CLR,0.00,VWS V14.01,2013-06-17 14:59:00,
2013-06-17 11:00:00,82.4,65.7,29.76,NNE,25,1.0,2.0,57,0.00,,CLR,0.00,VWS V14.01,2013-06-17 15:00:00,
2013-06-17 11:01:00,82.6,65.3,29.75,East,89,1.0,2.0,56,0.00,,CLR,0.00,VWS V14.01,2013-06-17 15:01:00,
2013-06-17 11:02:00,82.7,65.4,29.76,ENE,71,0.0,2.0,56,0.00,,CLR,0.00,VWS V14.01,2013-06-17 15:02:00,
2013-06-17 11:03:00,82.9,63.5,29.75,West,279,1.0,2.0,52,0.00,,CLR,0.00,VWS V14.01,2013-06-17 15:03:00,
2013-06-17 11:04:00,83.0,64.1,29.75,SSE,149,2.0,2.0,53,0.00,,CLR,0.00,VWS V14.01,2013-06-17 15:04:00,
2013-06-17 11:05:00,83.1,64.8,29.75,WSW,258,2.0,2.0,54,0.00,,CLR,0.00,VWS V14.01,2013-06-17 15:05:00,
2013-06-17 11:06:00,81.5,65.0,29.76,SW,228,1.0,3.0,57,0.00,,,0.00,weatherlink.com 1.10,2013-06-17 15:06:00,
2013-06-17 11:07:00,83.1,63.1,29.75,WSW,245,1.0,3.0,51,0.00,,CLR,0.00,VWS V14.01,2013-06-17 15:07:00,
2013-06-17 11:08:00,83.1,63.7,29.75,ESE,108,2.0,3.0,52,0.00,,CLR,0.00,VWS V14.01,2013-06-17 15:08:00,
2013-06-17 11:09:00,83.0,62.5,29.76,NW,322,1.0,4.0,50,0.00,,CLR,0.00,VWS V14.01,2013-06-17 15:09:00,
2013-06-17 11:10:00,82.9,62.9,29.76,WNW,298,0.0,4.0,51,0.00,,CLR,0.00,VWS V14.01,2013-06-17 15:10:00,
2013-06-17 11:11:00,82.8,62.8,29.76,SE,143,1.0,4.0,51,0.00,,CLR,0.00,VWS V14.01,2013-06-17 15:11:00,
2013-06-17 11:12:00,82.8,63.9,29.75,SSW,211,0.0,4.0,53,0.00,,CLR,0.00,VWS V14.01,2013-06-17 15:12:00,
2013-06-17 11:13:00,82.9,62.9,29.76,SSW,210,0.0,2.0,51,0.00,,CLR,0.00,VWS V14.01,2013-06-17 15:13:00,
2013-06-17 11:14:00,83.0,64.1,29.76,SW,222,0.0,2.0,53,0.00,,CLR,0.00,VWS V14.01,2013-06-17 15:14:00,
2013-06-17 11:15:00,83.2,63.2,29.76,SW,228,0.0,2.0,51,0.00,,CLR,0.00,VWS V14.01,2013-06-17 15:15:00,
2013-06-17 11:16:00,83.3,63.9,29.76,SSE,148,1.0,2.0,52,0.00,,CLR,0.00,VWS V14.01,2013-06-17 15:16:00,
2013-06-17 11:17:00,83.5,63.5,29.75,WSW,242,0.0,2.0,51,0.00,,CLR,0.00,VWS V14.01,2013-06-17 15:17:00,
2013-06-17 11:18:00,83.6,63.6,29.76,SSW,210,0.0,2.0,51,0.00,,CLR,0.00,VWS V14.01,2013-06-17 15:18:00,
2013-06-17 11:19:00,83.7,63.7,29.76,SW,217,1.0,2.0,51,0.00,,CLR,0.00,VWS V14.01,2013-06-17 15:19:00,
2013-06-17 11:20:00,83.6,64.1,29.76,ENE,70,1.0,2.0,52,0.00,,CLR,0.00,VWS V14.01,2013-06-17 15:20:00,
2013-06-17 11:21:00,83.7,64.2,29.76,SW,236,0.0,2.0,52,0.00,,CLR,0.00,VWS V14.01,2013-06-17 15:21:00,
2013-06-17 11:22:00,81.2,64.0,29.77,NNW,345,2.0,4.0,56,0.00,,,0.00,weatherlink.com 1.10,2013-06-17 15:22:00,
2013-06-17 11:23:00,83.8,64.3,29.76,WSW,242,0.0,3.0,52,0.00,,CLR,0.00,VWS V14.01,2013-06-17 15:23:00,
2013-06-17 11:24:00,83.8,64.9,29.76,South,177,1.0,3.0,53,0.00,,CLR,0.00,VWS V14.01,2013-06-17 15:24:00,
2013-06-17 11:25:00,83.8,64.9,29.76,South,184,1.0,3.0,53,0.00,,CLR,0.00,VWS V14.01,2013-06-17 15:25:00,
2013-06-17 11:26:00,83.9,64.4,29.76,SW,224,0.0,3.0,52,0.00,,CLR,0.00,VWS V14.01,2013-06-17 15:26:00,
2013-06-17 11:27:00,83.9,63.3,29.76,West,264,2.0,4.0,50,0.00,,CLR,0.00,VWS V14.01,2013-06-17 15:27:00,
2013-06-17 11:28:00,83.8,63.2,29.76,WNW,283,0.0,4.0,50,0.00,,CLR,0.00,VWS V14.01,2013-06-17 15:28:00,
2013-06-17 11:29:00,83.7,64.2,29.76,WSW,242,3.0,4.0,52,0.00,,CLR,0.00,VWS V14.01,2013-06-17 15:29:00,
2013-06-17 11:30:00,83.6,64.1,29.75,WSW,255,0.0,3.0,52,0.00,,CLR,0.00,VWS V14.01,2013-06-17 15:30:00,
2013-06-17 11:31:00,83.5,64.6,29.75,WSW,250,1.0,4.0,53,0.00,,CLR,0.00,VWS V14.01,2013-06-17 15:31:00,
2013-06-17 11:32:00,83.5,64.0,29.75,WNW,296,1.0,4.0,52,0.00,,CLR,0.00,VWS V14.01,2013-06-17 15:32:00,
2013-06-17 11:33:00,83.5,64.0,29.75,SW,230,1.0,4.0,52,0.00,,CLR,0.00,VWS V14.01,2013-06-17 15:33:00,
2013-06-17 11:34:00,83.5,63.5,29.75,WSW,248,0.0,4.0,51,0.00,,CLR,0.00,VWS V14.01,2013-06-17 15:34:00,
2013-06-17 11:35:00,83.5,63.5,29.75,NE,37,1.0,3.0,51,0.00,,CLR,0.00,VWS V14.01,2013-06-17 15:35:00,
2013-06-17 11:36:00,83.4,62.8,29.75,SW,218,1.0,3.0,50,0.00,,CLR,0.00,VWS V14.01,2013-06-17 15:36:00,
2013-06-17 11:37:00,83.3,63.3,29.75,SW,222,2.0,2.0,51,0.00,,CLR,0.00,VWS V14.01,2013-06-17 15:37:00,
2013-06-17 11:38:00,83.2,63.2,29.75,SW,217,2.0,2.0,51,0.00,,CLR,0.00,VWS V14.01,2013-06-17 15:38:00,
2013-06-17 11:39:00,81.4,63.0,29.75,WSW,238,6.0,6.0,53,0.00,,,0.00,weatherlink.com 1.10,2013-06-17 15:39:00,
2013-06-17 11:40:00,83.2,63.8,29.75,SW,221,0.0,3.0,52,0.00,,CLR,0.00,VWS V14.01,2013-06-17 15:40:00,
2013-06-17 11:41:00,83.3,64.9,29.75,SSW,212,0.0,3.0,54,0.00,,CLR,0.00,VWS V14.01,2013-06-17 15:41:00,
2013-06-17 11:42:00,83.4,65.0,29.75,SSE,157,1.0,3.0,54,0.00,,CLR,0.00,VWS V14.01,2013-06-17 15:42:00,
2013-06-17 11:43:00,83.5,65.7,29.75,SE,141,1.0,2.0,55,0.00,,CLR,0.00,VWS V14.01,2013-06-17 15:43:00,
2013-06-17 11:44:00,83.5,65.7,29.75,NNE,32,1.0,2.0,55,0.00,,CLR,0.00,VWS V14.01,2013-06-17 15:44:00,
2013-06-17 11:45:00,83.6,65.7,29.75,NE,39,0.0,2.0,55,0.00,,CLR,0.00,VWS V14.01,2013-06-17 15:45:00,
2013-06-17 11:46:00,83.6,65.2,29.75,West,273,1.0,2.0,54,0.00,,CLR,0.00,VWS V14.01,2013-06-17 15:46:00,
2013-06-17 11:55:00,81.7,62.0,29.76,SW,228,1.0,5.0,52,0.00,,,0.00,weatherlink.com 1.10,2013-06-17 15:55:00,
2013-06-17 12:11:00,81.8,62.0,29.76,WSW,246,0.0,6.0,52,0.00,,,0.00,weatherlink.com 1.10,2013-06-17 16:11:00,
2013-06-17 12:28:00,81.9,64.0,29.76,South,184,0.0,6.0,54,0.00,,,0.00,weatherlink.com 1.10,2013-06-17 16:28:00,
2013-06-17 12:45:00,82.9,63.0,29.76,ENE,69,0.0,4.0,51,0.00,,,0.00,weatherlink.com 1.10,2013-06-17 16:45:00,
2013-06-17 13:01:00,83.7,64.0,29.76,WSW,255,1.0,4.0,51,0.00,,,0.00,weatherlink.com 1.10,2013-06-17 17:01:00,
2013-06-17 13:18:00,83.6,64.0,29.75,West,273,0.0,3.0,51,0.00,,,0.00,weatherlink.com 1.10,2013-06-17 17:18:00,
2013-06-17 13:39:00,-999.0,-99.9,0.00,North,-999,-999.0,-999.0,-999,0.00,,,0.00,weatherlink.com 1.10,2013-06-17 17:39:00,
2013-06-17 13:48:00,-999.0,-99.9,29.74,North,-999,-999.0,-999.0,-999,0.00,,,0.00,weatherlink.com 1.10,2013-06-17 17:48:00,
2013-06-17 13:54:00,83.2,63.2,29.74,West,259,0.0,0.0,51,0.00,,CLR,0.00,VWS V14.01,2013-06-17 17:54:00,
2013-06-17 13:59:00,82.8,62.8,29.73,WSW,246,0.0,4.0,51,0.00,,CLR,0.00,VWS V14.01,2013-06-17 17:59:00,
2013-06-17 14:00:00,82.6,64.3,29.73,SSE,166,1.0,4.0,54,0.00,,CLR,0.00,VWS V14.01,2013-06-17 18:00:00,
2013-06-17 14:04:00,82.5,63.7,29.74,ESE,108,0.0,2.0,53,0.00,,CLR,0.00,VWS V14.01,2013-06-17 18:04:00,
2013-06-17 14:09:00,82.3,64.0,29.73,NW,326,0.0,3.0,54,0.00,,CLR,0.00,VWS V14.01,2013-06-17 18:09:00,
2013-06-17 14:14:00,81.9,63.1,29.73,SW,222,0.0,7.0,53,0.00,,CLR,0.00,VWS V14.01,2013-06-17 18:14:00,
2013-06-17 14:15:00,82.0,63.2,29.73,East,96,0.0,2.0,53,0.00,,CLR,0.00,VWS V14.01,2013-06-17 18:15:00,
2013-06-17 14:19:00,82.4,64.6,29.73,SE,134,0.0,3.0,55,0.00,,CLR,0.00,VWS V14.01,2013-06-17 18:19:00,
2013-06-17 14:24:00,82.9,65.1,29.73,SSE,160,0.0,3.0,55,0.00,,CLR,0.00,VWS V14.01,2013-06-17 18:24:00,
2013-06-17 14:29:00,82.7,64.9,29.73,South,180,1.0,2.0,55,0.00,,CLR,0.00,VWS V14.01,2013-06-17 18:29:00,
2013-06-17 14:30:00,82.7,64.4,29.73,SSW,205,0.0,2.0,54,0.00,,CLR,0.00,VWS V14.01,2013-06-17 18:30:00,
2013-06-17 14:34:00,82.5,64.7,29.73,SSE,150,2.0,2.0,55,0.00,,CLR,0.00,VWS V14.01,2013-06-17 18:34:00,
2013-06-17 14:39:00,82.0,63.7,29.73,South,179,0.0,4.0,54,0.00,,CLR,0.00,VWS V14.01,2013-06-17 18:39:00,
2013-06-17 14:44:00,81.5,63.8,29.73,South,174,2.0,2.0,55,0.00,,CLR,0.00,VWS V14.01,2013-06-17 18:44:00,
2013-06-17 14:45:00,81.3,64.1,29.74,WSW,240,5.0,5.0,56,0.00,,CLR,0.00,VWS V14.01,2013-06-17 18:45:00,
2013-06-17 14:49:00,80.6,63.0,29.74,SSW,208,0.0,3.0,55,0.00,,CLR,0.00,VWS V14.01,2013-06-17 18:49:00,
2013-06-17 14:54:00,80.0,63.4,29.74,SW,235,0.0,3.0,57,0.00,,CLR,0.00,VWS V14.01,2013-06-17 18:54:00,
2013-06-17 14:59:00,79.6,64.5,29.74,West,274,0.0,1.0,60,0.00,,CLR,0.00,VWS V14.01,2013-06-17 18:59:00,
2013-06-17 15:00:00,79.6,64.5,29.74,South,176,0.0,2.0,60,0.00,,CLR,0.00,VWS V14.01,2013-06-17 19:00:00,
2013-06-17 15:04:00,79.5,64.9,29.74,SSE,167,0.0,0.0,61,0.00,,CLR,0.00,VWS V14.01,2013-06-17 19:04:00,
2013-06-17 15:09:00,79.3,64.7,29.74,WSW,245,1.0,1.0,61,0.00,,CLR,0.00,VWS V14.01,2013-06-17 19:09:00,
2013-06-17 15:14:00,78.9,63.4,29.74,SW,224,0.0,1.0,59,0.00,,CLR,0.00,VWS V14.01,2013-06-17 19:14:00,
2013-06-17 15:15:00,78.9,62.9,29.74,SW,214,0.0,1.0,58,0.00,,CLR,0.00,VWS V14.01,2013-06-17 19:15:00,
2013-06-17 15:19:00,78.8,63.3,29.74,SSW,208,1.0,5.0,59,0.00,,CLR,0.00,VWS V14.01,2013-06-17 19:19:00,
2013-06-17 15:24:00,78.5,64.0,29.74,ENE,67,0.0,1.0,61,0.00,,CLR,0.00,VWS V14.01,2013-06-17 19:24:00,
2013-06-17 15:29:00,78.1,64.0,29.73,East,84,0.0,1.0,62,0.00,,CLR,0.00,VWS V14.01,2013-06-17 19:29:00,
2013-06-17 15:30:00,78.0,63.9,29.73,East,82,0.0,1.0,62,0.00,,CLR,0.00,VWS V14.01,2013-06-17 19:30:00,
2013-06-17 15:34:00,77.4,64.3,29.73,East,82,0.0,0.0,64,0.00,,CLR,0.00,VWS V14.01,2013-06-17 19:34:00,
2013-06-17 15:39:00,76.8,64.6,29.73,East,82,0.0,0.0,66,0.00,,CLR,0.00,VWS V14.01,2013-06-17 19:39:00,
2013-06-17 15:44:00,75.8,64.1,29.73,East,101,0.0,1.0,67,0.00,,CLR,0.00,VWS V14.01,2013-06-17 19:44:00,
2013-06-17 15:45:00,75.5,65.0,29.73,East,101,0.0,1.0,70,0.00,,CLR,0.00,VWS V14.01,2013-06-17 19:45:00,
2013-06-17 15:49:00,75.0,65.4,29.74,South,174,0.0,0.0,72,0.01,,CLR,0.01,VWS V14.01,2013-06-17 19:49:00,
2013-06-17 15:54:00,73.2,64.4,29.75,SW,218,3.0,4.0,74,0.06,,CLR,0.06,VWS V14.01,2013-06-17 19:54:00,
2013-06-17 15:59:00,70.6,64.1,29.75,NE,36,2.0,2.0,80,0.07,,CLR,0.07,VWS V14.01,2013-06-17 19:59:00,
2013-06-17 16:00:00,70.0,63.9,29.75,SW,229,1.0,2.0,81,0.07,,CLR,0.07,VWS V14.01,2013-06-17 20:00:00,
2013-06-17 16:04:00,68.9,63.2,29.75,West,267,1.0,1.0,82,0.07,,CLR,0.07,VWS V14.01,2013-06-17 20:04:00,
2013-06-17 16:09:00,67.9,63.6,29.75,West,264,0.0,1.0,86,0.07,,CLR,0.07,VWS V14.01,2013-06-17 20:09:00,
2013-06-17 16:14:00,68.3,65.3,29.74,West,266,0.0,0.0,90,0.07,,CLR,0.07,VWS V14.01,2013-06-17 20:14:00,
2013-06-17 16:15:00,68.4,65.4,29.74,West,266,0.0,0.0,90,0.07,,CLR,0.07,VWS V14.01,2013-06-17 20:15:00,
2013-06-17 16:19:00,68.6,65.2,29.74,West,264,0.0,1.0,89,0.07,,CLR,0.07,VWS V14.01,2013-06-17 20:19:00,
2013-06-17 16:24:00,68.6,64.6,29.73,West,264,0.0,0.0,87,0.07,,CLR,0.07,VWS V14.01,2013-06-17 20:24:00,
2013-06-17 16:29:00,68.7,65.0,29.74,West,264,0.0,0.0,88,0.07,,CLR,0.07,VWS V14.01,2013-06-17 20:29:00,
2013-06-17 16:30:00,68.6,64.6,29.74,West,264,0.0,0.0,87,0.07,,CLR,0.07,VWS V14.01,2013-06-17 20:30:00,
2013-06-17 16:34:00,68.5,65.1,29.74,West,264,0.0,0.0,89,0.07,,CLR,0.07,VWS V14.01,2013-06-17 20:34:00,
2013-06-17 16:39:00,68.2,64.8,29.73,West,264,0.0,0.0,89,0.07,,CLR,0.07,VWS V14.01,2013-06-17 20:39:00,
2013-06-17 16:44:00,67.6,64.2,29.73,West,266,0.0,1.0,89,0.07,,CLR,0.07,VWS V14.01,2013-06-17 20:44:00,
2013-06-17 16:45:00,67.3,64.0,29.73,West,266,0.0,1.0,89,0.07,,CLR,0.07,VWS V14.01,2013-06-17 20:45:00,
2013-06-17 16:49:00,66.7,63.7,29.75,West,271,1.0,1.0,90,0.08,,CLR,0.08,VWS V14.01,2013-06-17 20:49:00,
2013-06-17 16:54:00,66.0,63.0,29.79,WSW,239,1.0,5.0,90,0.09,,CLR,0.09,VWS V14.01,2013-06-17 20:54:00,
2013-06-17 16:59:00,66.0,63.9,29.80,SW,217,1.0,3.0,93,0.10,,CLR,0.10,VWS V14.01,2013-06-17 20:59:00,
2013-06-17 17:00:00,65.9,63.8,29.80,SW,225,0.0,1.0,93,0.10,,CLR,0.10,VWS V14.01,2013-06-17 21:00:00,
2013-06-17 17:04:00,65.9,63.8,29.79,SSW,204,0.0,2.0,93,0.04,,CLR,0.11,VWS V14.01,2013-06-17 21:04:00,
2013-06-17 17:09:00,65.7,63.6,29.80,WSW,256,1.0,4.0,93,0.04,,CLR,0.11,VWS V14.01,2013-06-17 21:09:00,
2013-06-17 17:14:00,65.6,63.5,29.80,NNW,347,1.0,2.0,93,0.05,,CLR,0.12,VWS V14.01,2013-06-17 21:14:00,
2013-06-17 17:15:00,65.6,63.2,29.80,NNE,19,3.0,3.0,92,0.05,,CLR,0.12,VWS V14.01,2013-06-17 21:15:00,
2013-06-17 17:19:00,65.4,63.0,29.79,NE,52,1.0,3.0,92,0.06,,CLR,0.13,VWS V14.01,2013-06-17 21:19:00,
2013-06-17 17:24:00,65.3,62.9,29.79,NNW,328,1.0,1.0,92,0.07,,CLR,0.14,VWS V14.01,2013-06-17 21:24:00,
2013-06-17 17:29:00,65.0,62.6,29.80,SSW,196,0.0,1.0,92,0.08,,CLR,0.15,VWS V14.01,2013-06-17 21:29:00,
2013-06-17 17:30:00,64.9,62.5,29.79,WSW,238,0.0,2.0,92,0.09,,CLR,0.16,VWS V14.01,2013-06-17 21:30:00,
2013-06-17 17:34:00,64.8,62.4,29.79,WSW,238,0.0,2.0,92,0.10,,CLR,0.17,VWS V14.01,2013-06-17 21:34:00,
2013-06-17 17:39:00,64.6,62.2,29.79,West,280,0.0,3.0,92,0.10,,CLR,0.17,VWS V14.01,2013-06-17 21:39:00,
2013-06-17 17:44:00,64.8,62.7,29.79,WSW,238,1.0,1.0,93,0.11,,CLR,0.18,VWS V14.01,2013-06-17 21:44:00,
2013-06-17 17:45:00,64.6,62.5,29.79,West,269,1.0,2.0,93,0.11,,CLR,0.18,VWS V14.01,2013-06-17 21:45:00,
2013-06-17 17:49:00,64.5,62.4,29.79,West,269,0.0,1.0,93,0.12,,CLR,0.19,VWS V14.01,2013-06-17 21:49:00,
2013-06-17 17:54:00,64.5,62.7,29.79,SW,225,0.0,0.0,94,0.12,,CLR,0.19,VWS V14.01,2013-06-17 21:54:00,
2013-06-17 17:59:00,64.2,62.4,29.78,SE,138,0.0,1.0,94,0.14,,CLR,0.21,VWS V14.01,2013-06-17 21:59:00,
2013-06-17 18:00:00,64.2,62.4,29.78,SE,138,0.0,0.0,94,0.14,,CLR,0.21,VWS V14.01,2013-06-17 22:00:00,
2013-06-17 18:04:00,64.0,62.2,29.78,ENE,58,0.0,1.0,94,0.11,,CLR,0.21,VWS V14.01,2013-06-17 22:04:00,
2013-06-17 18:09:00,63.9,62.4,29.77,East,86,0.0,0.0,95,0.11,,CLR,0.21,VWS V14.01,2013-06-17 22:09:00,
2013-06-17 18:14:00,64.0,62.5,29.77,East,88,0.0,0.0,95,0.11,,CLR,0.21,VWS V14.01,2013-06-17 22:14:00,
2013-06-17 18:15:00,64.0,62.5,29.76,East,88,0.0,1.0,95,0.11,,CLR,0.21,VWS V14.01,2013-06-17 22:15:00,
2013-06-17 18:19:00,64.0,62.5,29.76,East,88,0.0,0.0,95,0.10,,CLR,0.22,VWS V14.01,2013-06-17 22:19:00,
2013-06-17 18:24:00,64.3,63.1,29.76,East,87,0.0,0.0,96,0.10,,CLR,0.22,VWS V14.01,2013-06-17 22:24:00,
2013-06-17 18:29:00,65.0,63.8,29.76,East,89,0.0,0.0,96,0.10,,CLR,0.22,VWS V14.01,2013-06-17 22:29:00,
2013-06-17 18:30:00,65.1,63.9,29.76,East,89,0.0,0.0,96,0.10,,CLR,0.22,VWS V14.01,2013-06-17 22:30:00,
2013-06-17 18:34:00,65.3,63.8,29.77,East,89,0.0,0.0,95,0.06,,CLR,0.22,VWS V14.01,2013-06-17 22:34:00,
2013-06-17 18:39:00,65.6,64.1,29.77,East,89,0.0,0.0,95,0.06,,CLR,0.22,VWS V14.01,2013-06-17 22:39:00,
2013-06-17 18:44:00,65.6,64.1,29.77,East,87,0.0,0.0,95,0.06,,CLR,0.22,VWS V14.01,2013-06-17 22:44:00,
2013-06-17 18:45:00,65.6,64.1,29.77,East,87,0.0,0.0,95,0.06,,CLR,0.22,VWS V14.01,2013-06-17 22:45:00,
2013-06-17 18:49:00,65.6,64.1,29.77,East,90,0.0,0.0,95,0.04,,CLR,0.22,VWS V14.01,2013-06-17 22:49:00,
2013-06-17 18:54:00,65.5,64.0,29.78,East,100,0.0,0.0,95,0.04,,CLR,0.22,VWS V14.01,2013-06-17 22:54:00,
2013-06-17 18:59:00,65.2,63.7,29.78,East,100,0.0,0.0,95,0.04,,CLR,0.22,VWS V14.01,2013-06-17 22:59:00,
2013-06-17 19:00:00,65.2,63.7,29.78,ESE,114,0.0,0.0,95,0.04,,CLR,0.22,VWS V14.01,2013-06-17 23:00:00,
2013-06-17 19:04:00,65.0,63.5,29.78,ESE,114,0.0,0.0,95,0.01,,CLR,0.22,VWS V14.01,2013-06-17 23:04:00,
2013-06-17 19:09:00,64.7,63.2,29.80,ESE,114,0.0,0.0,95,0.01,,CLR,0.22,VWS V14.01,2013-06-17 23:09:00,
2013-06-17 19:14:00,64.4,62.9,29.80,East,91,0.0,0.0,95,0.01,,CLR,0.22,VWS V14.01,2013-06-17 23:14:00,
2013-06-17 19:15:00,64.3,62.8,29.81,East,90,0.0,0.0,95,0.01,,CLR,0.22,VWS V14.01,2013-06-17 23:15:00,
2013-06-17 19:19:00,64.1,62.6,29.80,WSW,246,0.0,1.0,95,0.01,,CLR,0.22,VWS V14.01,2013-06-17 23:19:00,
2013-06-17 19:24:00,64.0,62.8,29.80,SSE,167,0.0,0.0,96,0.01,,CLR,0.22,VWS V14.01,2013-06-17 23:24:00,
2013-06-17 19:29:00,63.9,62.7,29.81,East,97,0.0,1.0,96,0.01,,CLR,0.22,VWS V14.01,2013-06-17 23:29:00,
2013-06-17 19:30:00,63.9,62.7,29.81,East,97,0.0,1.0,96,0.01,,CLR,0.22,VWS V14.01,2013-06-17 23:30:00,
2013-06-17 19:34:00,63.8,62.6,29.81,South,190,1.0,2.0,96,0.00,,CLR,0.22,VWS V14.01,2013-06-17 23:34:00,
2013-06-17 19:39:00,63.7,62.5,29.81,SE,137,0.0,4.0,96,0.00,,CLR,0.22,VWS V14.01,2013-06-17 23:39:00,
2013-06-17 19:44:00,63.6,62.4,29.81,WSW,255,1.0,2.0,96,0.00,,CLR,0.22,VWS V14.01,2013-06-17 23:44:00,
2013-06-17 19:45:00,63.6,62.4,29.81,WSW,253,0.0,2.0,96,0.00,,CLR,0.22,VWS V14.01,2013-06-17 23:45:00,
2013-06-17 19:49:00,63.6,62.4,29.81,WSW,252,0.0,1.0,96,0.00,,CLR,0.22,VWS V14.01,2013-06-17 23:49:00,
2013-06-17 19:54:00,63.5,62.3,29.81,NW,311,0.0,1.0,96,0.00,,CLR,0.22,VWS V14.01,2013-06-17 23:54:00,
2013-06-17 19:59:00,63.3,62.1,29.81,SE,125,1.0,1.0,96,0.00,,CLR,0.22,VWS V14.01,2013-06-17 23:59:00,
2013-06-17 20:00:00,63.3,62.1,29.81,ESE,108,0.0,2.0,96,0.00,,CLR,0.22,VWS V14.01,2013-06-18 00:00:00,
2013-06-17 20:04:00,63.2,62.3,29.81,SW,219,1.0,2.0,97,0.00,,CLR,0.22,VWS V14.01,2013-06-18 00:04:00,
2013-06-17 20:09:00,63.1,62.2,29.81,West,260,0.0,1.0,97,0.00,,CLR,0.22,VWS V14.01,2013-06-18 00:09:00,
2013-06-17 20:14:00,62.9,62.0,29.81,WSW,258,0.0,0.0,97,0.00,,CLR,0.22,VWS V14.01,2013-06-18 00:14:00,
2013-06-17 20:15:00,62.9,62.0,29.81,SE,135,0.0,1.0,97,0.00,,CLR,0.22,VWS V14.01,2013-06-18 00:15:00,
2013-06-17 20:19:00,62.7,61.8,29.81,NNE,23,0.0,0.0,97,0.00,,CLR,0.22,VWS V14.01,2013-06-18 00:19:00,
2013-06-17 20:24:00,62.6,61.7,29.82,East,89,0.0,0.0,97,0.00,,CLR,0.22,VWS V14.01,2013-06-18 00:24:00,
2013-06-17 20:29:00,62.5,61.6,29.81,East,87,0.0,1.0,97,0.00,,CLR,0.22,VWS V14.01,2013-06-18 00:29:00,
2013-06-17 20:30:00,62.4,61.5,29.81,East,89,0.0,1.0,97,0.00,,CLR,0.22,VWS V14.01,2013-06-18 00:30:00,
2013-06-17 20:34:00,62.4,61.8,29.81,South,179,2.0,2.0,98,0.00,,CLR,0.22,VWS V14.01,2013-06-18 00:34:00,
2013-06-17 20:39:00,62.3,61.7,29.81,West,260,0.0,0.0,98,0.00,,CLR,0.22,VWS V14.01,2013-06-18 00:39:00,
2013-06-17 20:44:00,62.2,61.6,29.81,West,259,0.0,0.0,98,0.00,,CLR,0.22,VWS V14.01,2013-06-18 00:44:00,
2013-06-17 20:45:00,62.1,61.5,29.81,ESE,121,0.0,2.0,98,0.00,,CLR,0.22,VWS V14.01,2013-06-18 00:45:00,
2013-06-17 20:49:00,62.1,61.5,29.81,East,80,0.0,1.0,98,0.00,,CLR,0.22,VWS V14.01,2013-06-18 00:49:00,
2013-06-17 20:54:00,62.0,61.4,29.81,WNW,294,1.0,1.0,98,0.00,,CLR,0.22,VWS V14.01,2013-06-18 00:54:00,
2013-06-17 20:59:00,61.9,61.3,29.82,West,280,0.0,1.0,98,0.00,,CLR,0.22,VWS V14.01,2013-06-18 00:59:00,
2013-06-17 21:00:00,61.9,61.3,29.82,West,280,0.0,1.0,98,0.00,,CLR,0.22,VWS V14.01,2013-06-18 01:00:00,
2013-06-17 21:04:00,61.9,61.3,29.83,SE,145,0.0,2.0,98,0.00,,CLR,0.22,VWS V14.01,2013-06-18 01:04:00,
2013-06-17 21:09:00,61.9,61.3,29.83,SW,231,0.0,1.0,98,0.00,,CLR,0.22,VWS V14.01,2013-06-18 01:09:00,
2013-06-17 21:14:00,61.9,61.6,29.83,WSW,241,0.0,2.0,99,0.00,,CLR,0.22,VWS V14.01,2013-06-18 01:14:00,
2013-06-17 21:15:00,61.8,61.5,29.83,WSW,240,0.0,2.0,99,0.00,,CLR,0.22,VWS V14.01,2013-06-18 01:15:00,
2013-06-17 21:19:00,61.8,61.2,29.83,ESE,103,0.0,0.0,98,0.00,,CLR,0.22,VWS V14.01,2013-06-18 01:19:00,
2013-06-17 21:24:00,61.8,61.5,29.84,ESE,103,0.0,0.0,99,0.00,,CLR,0.22,VWS V14.01,2013-06-18 01:24:00,
2013-06-17 21:29:00,61.7,61.4,29.84,ESE,103,0.0,0.0,99,0.00,,CLR,0.22,VWS V14.01,2013-06-18 01:29:00,
2013-06-17 21:30:00,61.7,61.4,29.84,ESE,103,0.0,0.0,99,0.00,,CLR,0.22,VWS V14.01,2013-06-18 01:30:00,
2013-06-17 21:34:00,61.6,61.3,29.84,ESE,103,0.0,0.0,99,0.00,,CLR,0.22,VWS V14.01,2013-06-18 01:34:00,
2013-06-17 21:39:00,61.6,61.3,29.84,North,4,1.0,1.0,99,0.00,,CLR,0.22,VWS V14.01,2013-06-18 01:39:00,
2013-06-17 21:44:00,61.6,61.3,29.84,North,360,0.0,0.0,99,0.00,,CLR,0.22,VWS V14.01,2013-06-18 01:44:00,
2013-06-17 21:45:00,61.6,61.3,29.84,North,360,0.0,0.0,99,0.00,,CLR,0.22,VWS V14.01,2013-06-18 01:45:00,
2013-06-17 21:49:00,61.6,61.3,29.84,North,360,0.0,0.0,99,0.00,,CLR,0.22,VWS V14.01,2013-06-18 01:49:00,
2013-06-17 21:54:00,61.6,61.3,29.84,North,360,0.0,0.0,99,0.00,,CLR,0.22,VWS V14.01,2013-06-18 01:54:00,
2013-06-17 21:59:00,61.5,61.2,29.84,North,360,0.0,0.0,99,0.00,,CLR,0.22,VWS V14.01,2013-06-18 01:59:00,
2013-06-17 22:00:00,61.5,61.2,29.84,North,360,0.0,0.0,99,0.00,,CLR,0.22,VWS V14.01,2013-06-18 02:00:00,
2013-06-17 22:04:00,61.5,61.2,29.84,North,1,0.0,0.0,99,0.00,,CLR,0.22,VWS V14.01,2013-06-18 02:04:00,
2013-06-17 22:09:00,61.5,61.2,29.83,WSW,243,0.0,1.0,99,0.00,,CLR,0.22,VWS V14.01,2013-06-18 02:09:00,
2013-06-17 22:14:00,61.5,61.2,29.83,WSW,243,0.0,0.0,99,0.00,,CLR,0.22,VWS V14.01,2013-06-18 02:14:00,
2013-06-17 22:15:00,61.5,61.2,29.83,WSW,243,0.0,0.0,99,0.00,,CLR,0.22,VWS V14.01,2013-06-18 02:15:00,
2013-06-17 22:19:00,61.4,61.1,29.83,WSW,243,0.0,0.0,99,0.00,,CLR,0.22,VWS V14.01,2013-06-18 02:19:00,
2013-06-17 22:24:00,61.4,61.1,29.83,WSW,243,0.0,0.0,99,0.00,,CLR,0.22,VWS V14.01,2013-06-18 02:24:00,
2013-06-17 22:29:00,61.3,61.0,29.83,WSW,243,0.0,0.0,99,0.00,,CLR,0.22,VWS V14.01,2013-06-18 02:29:00,
2013-06-17 22:30:00,61.2,60.9,29.83,WSW,243,0.0,0.0,99,0.00,,CLR,0.22,VWS V14.01,2013-06-18 02:30:00,
2013-06-17 22:34:00,61.1,60.8,29.83,WSW,243,0.0,0.0,99,0.00,,CLR,0.22,VWS V14.01,2013-06-18 02:34:00,
2013-06-17 22:39:00,61.0,60.7,29.83,WSW,243,0.0,0.0,99,0.00,,CLR,0.22,VWS V14.01,2013-06-18 02:39:00,
2013-06-17 22:44:00,60.9,60.6,29.83,WSW,243,0.0,0.0,99,0.00,,CLR,0.22,VWS V14.01,2013-06-18 02:44:00,
2013-06-17 22:45:00,60.8,60.5,29.83,WSW,243,0.0,0.0,99,0.00,,CLR,0.22,VWS V14.01,2013-06-18 02:45:00,
2013-06-17 22:49:00,60.8,60.5,29.83,WSW,245,0.0,0.0,99,0.00,,CLR,0.22,VWS V14.01,2013-06-18 02:49:00,
2013-06-17 22:54:00,60.7,60.4,29.83,South,191,0.0,0.0,99,0.00,,CLR,0.22,VWS V14.01,2013-06-18 02:54:00,
2013-06-17 22:59:00,60.6,60.3,29.83,South,191,0.0,0.0,99,0.00,,CLR,0.22,VWS V14.01,2013-06-18 02:59:00,
2013-06-17 23:00:00,60.6,60.3,29.83,South,191,0.0,0.0,99,0.00,,CLR,0.22,VWS V14.01,2013-06-18 03:00:00,
2013-06-17 23:04:00,60.8,60.5,29.82,West,262,0.0,0.0,99,0.00,,CLR,0.22,VWS V14.01,2013-06-18 03:04:00,
2013-06-17 23:09:00,60.8,60.5,29.82,West,262,0.0,0.0,99,0.00,,CLR,0.22,VWS V14.01,2013-06-18 03:09:00,
2013-06-17 23:14:00,60.8,60.5,29.83,West,262,0.0,0.0,99,0.00,,CLR,0.22,VWS V14.01,2013-06-18 03:14:00,
2013-06-17 23:15:00,60.7,60.4,29.83,West,262,0.0,0.0,99,0.00,,CLR,0.22,VWS V15.00,2013-06-18 03:15:00,
2013-06-17 23:19:00,60.5,60.2,29.83,West,262,0.0,0.0,99,0.00,,CLR,0.22,VWS V14.01,2013-06-18 03:19:00,
2013-06-17 23:24:00,60.4,60.1,29.83,WSW,258,0.0,0.0,99,0.00,,CLR,0.22,VWS V14.01,2013-06-18 03:24:00,
2013-06-17 23:29:00,60.3,60.0,29.83,West,259,0.0,0.0,99,0.00,,CLR,0.22,VWS V14.01,2013-06-18 03:29:00,
2013-06-17 23:30:00,60.2,59.9,29.83,West,259,0.0,0.0,99,0.00,,CLR,0.22,VWS V14.01,2013-06-18 03:30:00,
2013-06-17 23:34:00,60.1,59.8,29.83,West,259,0.0,0.0,99,0.00,,CLR,0.22,VWS V14.01,2013-06-18 03:34:00,
2013-06-17 23:39:00,60.0,59.7,29.83,WSW,258,0.0,0.0,99,0.00,,CLR,0.22,VWS V14.01,2013-06-18 03:39:00,
2013-06-17 23:44:00,59.9,59.6,29.83,West,260,0.0,0.0,99,0.00,,CLR,0.22,VWS V14.01,2013-06-18 03:44:00,
2013-06-17 23:45:00,59.9,59.6,29.83,West,262,0.0,0.0,99,0.00,,CLR,0.22,VWS V14.01,2013-06-18 03:45:00,
2013-06-17 23:49:00,59.7,59.4,29.83,West,259,0.0,0.0,99,0.00,,CLR,0.22,VWS V14.01,2013-06-18 03:49:00,
2013-06-17 23:54:00,59.7,59.4,29.83,West,260,0.0,0.0,99,0.00,,CLR,0.22,VWS V14.01,2013-06-18 03:54:00,
2013-06-17 23:59:00,59.7,59.4,29.83,West,259,0.0,0.0,99,0.00,,CLR,0.22,VWS V14.01,2013-06-18 03:59:00,